Yeager Airport
KCRW : now visible

Airfield :











YOU CAN JOIN US ON...

 
LOGIN :

Register | Disclaimer

   EN    FR    IT 

 









Legend :    VFR   Marginal VFR   IFR   Intensive IFR   Very Intensive IFR
Visi :
Ceiling :
>= 8 km
>= 3000ft
5 to 8 km
1000 to 3000 ft
1500m to 5 km
500 to 1000 ft
800 to 1500m
200 to 500 ft
< 800m
< 200 ft
Symbols :   Thunderstorms  Fog  Heavy snow  Heavy precipitations  Wind > 20 kt






- Airport Elevation : 981 ft
- IATA code : CRW


KCRW - Yeager

CURRENT METAR :
  • 162054Z 00000KT 10SM FEW020 BKN040 25/17 A2997 RMK AO2 SLP142 T02500167 58010

EXPIRED METARs :
  • 161954Z 00000KT 10SM FEW019 BKN029 24/18 A2999 RMK AO2 SLP148 T02390178
  • 161854Z VRB03KT 10SM BKN027 22/18 A3000 RMK AO2 SLP151 T02220178
  • 161831Z 33004KT 10SM BKN018 OVC023 22/18 A3000 RMK AO2 OCNL BINOVC T02220178

TAF KCRW
Valid from the 16 at 18:00 until the 17 at 18:00 UTC


161721Z 1618/1718 33003KT 6SM BR BKN008
TEMPO 1620/1624 4SM SHRA BR OVC025
FM170900 00000KT 3SM BR BKN003
FM171000 00000KT 3SM BR BKN015
FM171200 00000KT 3SM BR SCT026
FM171600 VRB03KT P6SM FEW120
KZID FIR / North America



MET'MAP, your aeronautical weather chart ! - Copyright ORBIFLY December 2007 - Disclaimer

ORBIFLY MET'MAP TEAM :

Programming & Development : Alexandra Zaïnal
Original concept : Baudouin d'Aumeries
Technical & hardware support : Manuel Goepfert
Assistance : Marc-Olivier Méhu




SOURCES & CREDITS :

   NOAA       Earth
Advisory